createdAt,value
2023-01-28T00:04:29.560Z,2.70
2023-01-28T00:11:29.875Z,2.60
2023-01-28T00:18:31.091Z,2.50
2023-01-28T00:25:31.815Z,2.40
2023-01-28T00:32:31.880Z,2.30
2023-01-28T00:39:32.420Z,2.10
2023-01-28T00:46:34.959Z,2.00
2023-01-28T00:53:36.783Z,1.90
2023-01-28T01:00:37.040Z,1.80
2023-01-28T01:07:43.463Z,1.70
2023-01-28T01:14:43.622Z,1.60
2023-01-28T01:21:43.998Z,1.50
2023-01-28T01:28:46.637Z,1.30
2023-01-28T01:35:54.680Z,1.20
2023-01-28T01:42:55.328Z,1.10
2023-01-28T01:49:56.773Z,0.90
2023-01-28T01:56:58.525Z,0.90
2023-01-28T02:04:11.931Z,0.80
2023-01-28T02:11:15.563Z,0.70
2023-01-28T02:18:16.091Z,0.70
2023-01-28T02:25:54.367Z,0.60
2023-01-28T02:33:00.598Z,0.50
2023-01-28T02:40:13.007Z,0.40
2023-01-28T02:47:33.983Z,0.30
2023-01-28T02:54:47.854Z,0.20
2023-01-28T03:01:58.230Z,0.20
2023-01-28T03:09:20.001Z,0.30
2023-01-28T03:16:39.091Z,0.30
2023-01-28T03:24:16.396Z,0.40
2023-01-28T03:31:39.405Z,0.50
2023-01-28T03:38:42.152Z,0.60
2023-01-28T03:45:46.169Z,0.70
2023-01-28T03:52:46.542Z,0.90
2023-01-28T03:59:57.232Z,1.00
2023-01-28T04:06:57.473Z,1.10
2023-01-28T04:13:57.657Z,1.10
2023-01-28T04:20:59.613Z,1.20
2023-01-28T04:28:00.589Z,1.20
2023-01-28T04:35:03.454Z,1.30
2023-01-28T04:42:22.882Z,1.40
2023-01-28T04:49:34.991Z,1.40
2023-01-28T04:56:59.036Z,1.50
2023-01-28T05:04:05.273Z,1.60
2023-01-28T05:11:07.980Z,1.60
2023-01-28T05:18:08.636Z,1.60
2023-01-28T05:25:15.088Z,1.60
2023-01-28T05:32:15.731Z,1.60
2023-01-28T05:39:16.038Z,1.60
2023-01-28T05:46:16.444Z,1.70
2023-01-28T05:53:43.226Z,1.70
2023-01-28T06:00:44.023Z,1.70
2023-01-28T06:07:48.872Z,1.60
2023-01-28T06:14:50.004Z,1.70
2023-01-28T06:22:09.031Z,1.70
2023-01-28T06:29:09.669Z,1.70
2023-01-28T06:36:09.962Z,1.70
2023-01-28T06:43:10.114Z,1.70
2023-01-28T06:50:11.034Z,1.60
2023-01-28T06:57:11.558Z,1.70
2023-01-28T07:04:11.965Z,1.70
2023-01-28T07:11:12.752Z,1.70
2023-01-28T07:18:13.389Z,1.70
2023-01-28T07:25:14.702Z,1.60
2023-01-28T07:32:14.981Z,1.60
2023-01-28T07:39:15.319Z,1.60
2023-01-28T07:46:15.769Z,1.60
2023-01-28T07:53:16.531Z,1.70
2023-01-28T08:00:17.488Z,1.70
2023-01-28T08:07:18.762Z,1.70
2023-01-28T08:14:19.153Z,1.70
2023-01-28T08:21:19.625Z,1.90
2023-01-28T08:28:22.672Z,2.00
2023-01-28T08:35:23.219Z,2.10
2023-01-28T08:42:23.596Z,2.20
2023-01-28T08:49:24.360Z,2.20
2023-01-28T08:56:24.788Z,2.10
2023-01-28T09:03:25.402Z,2.20
2023-01-28T09:10:25.827Z,2.10
2023-01-28T09:17:26.086Z,2.10
2023-01-28T09:24:26.459Z,2.00
2023-01-28T09:31:26.883Z,2.00
2023-01-28T09:38:28.797Z,1.90
2023-01-28T09:45:42.936Z,1.90
2023-01-28T09:52:43.477Z,1.90
2023-01-28T09:59:43.895Z,1.80
2023-01-28T10:07:00.945Z,1.90
2023-01-28T10:14:38.541Z,2.00
2023-01-28T10:21:48.527Z,2.00
2023-01-28T10:28:56.193Z,2.00
2023-01-28T10:35:57.710Z,2.00
2023-01-28T10:42:58.028Z,2.00
2023-01-28T10:50:02.130Z,2.10
2023-01-28T10:57:05.458Z,2.10
2023-01-28T11:04:06.613Z,2.00
2023-01-28T11:11:14.774Z,2.00
2023-01-28T11:18:25.007Z,2.00
2023-01-28T11:25:34.540Z,2.00
2023-01-28T11:32:34.761Z,2.00
2023-01-28T11:39:35.265Z,2.00
2023-01-28T11:46:49.450Z,2.10
2023-01-28T11:54:27.403Z,2.10
2023-01-28T12:01:30.585Z,2.10
2023-01-28T12:09:15.334Z,2.10
2023-01-28T12:16:21.299Z,2.00
2023-01-28T12:23:52.017Z,2.00
2023-01-28T12:31:13.045Z,2.00
2023-01-28T12:38:28.551Z,2.00
2023-01-28T12:45:40.957Z,2.20
2023-01-28T12:52:48.154Z,2.20
2023-01-28T13:00:32.717Z,2.20
2023-01-28T13:07:45.862Z,2.30
2023-01-28T13:14:46.457Z,2.50
2023-01-28T13:21:49.605Z,2.60
2023-01-28T13:28:52.609Z,2.80
2023-01-28T13:35:55.235Z,3.10
2023-01-28T13:43:05.127Z,3.20
2023-01-28T13:50:13.889Z,3.20
2023-01-28T13:57:32.586Z,3.40
2023-01-28T14:05:06.267Z,3.50
2023-01-28T14:12:24.799Z,3.40
2023-01-28T14:19:32.709Z,3.30
2023-01-28T14:26:56.871Z,3.10
2023-01-28T14:34:12.814Z,3.00
2023-01-28T14:41:26.479Z,2.90
2023-01-28T14:48:39.684Z,2.80
2023-01-28T14:55:42.451Z,2.80
2023-01-28T15:02:44.845Z,2.80
2023-01-28T15:09:45.361Z,3.00
2023-01-28T15:16:49.976Z,3.00
2023-01-28T15:23:53.546Z,2.90
2023-01-28T15:30:53.842Z,2.90
2023-01-28T15:37:54.580Z,2.80
2023-01-28T15:44:58.103Z,2.60
2023-01-28T15:51:58.596Z,2.50
2023-01-28T15:59:31.123Z,2.30
2023-01-28T16:06:36.806Z,2.10
2023-01-28T16:13:43.769Z,2.00
2023-01-28T16:20:48.258Z,1.80
2023-01-28T16:27:48.503Z,1.60
2023-01-28T16:34:48.925Z,1.40
2023-01-28T16:41:49.636Z,1.20
2023-01-28T16:48:49.837Z,1.10
2023-01-28T16:55:51.154Z,0.90
2023-01-28T17:02:53.151Z,0.80
2023-01-28T17:09:53.827Z,0.60
2023-01-28T17:16:54.313Z,0.60
2023-01-28T17:23:54.774Z,0.50
2023-01-28T17:30:55.193Z,0.50
2023-01-28T17:37:55.617Z,0.30
2023-01-28T17:44:56.963Z,0.30
2023-01-28T17:51:57.406Z,0.20
2023-01-28T17:59:03.405Z,0.10
2023-01-28T18:06:04.256Z,0.00
2023-01-28T18:13:04.729Z,-0.20
2023-01-28T18:20:06.293Z,-0.30
2023-01-28T18:27:06.628Z,-0.30
2023-01-28T18:34:07.104Z,-0.40
2023-01-28T18:41:07.417Z,-0.40
2023-01-28T18:48:08.225Z,-0.50
2023-01-28T18:55:09.515Z,-0.60
2023-01-28T19:02:13.659Z,-0.70
2023-01-28T19:09:15.281Z,-0.90
2023-01-28T19:16:15.910Z,-0.90
2023-01-28T19:23:16.501Z,-1.00
2023-01-28T19:30:17.363Z,-1.00
2023-01-28T19:37:17.651Z,-1.00
2023-01-28T19:44:18.202Z,-1.10
2023-01-28T19:51:18.391Z,-1.20
2023-01-28T19:58:18.979Z,-1.20
2023-01-28T20:05:19.403Z,-1.30
2023-01-28T20:12:19.745Z,-1.30
2023-01-28T20:19:20.082Z,-1.40
2023-01-28T20:26:26.043Z,-1.50
2023-01-28T20:33:26.539Z,-1.60
2023-01-28T20:40:26.826Z,-1.60
2023-01-28T20:47:27.190Z,-1.70
2023-01-28T20:54:27.628Z,-1.80
2023-01-28T21:01:30.503Z,-1.80
2023-01-28T21:08:31.020Z,-1.90
2023-01-28T21:15:31.518Z,-2.00
2023-01-28T21:22:31.882Z,-2.00
2023-01-28T21:29:32.428Z,-2.10
2023-01-28T21:36:34.302Z,-2.20
2023-01-28T21:43:35.272Z,-2.30
2023-01-28T21:50:55.383Z,-2.30
2023-01-28T21:58:15.529Z,-2.40
2023-01-28T22:05:15.661Z,-2.40
2023-01-28T22:12:16.620Z,-2.40
2023-01-28T22:19:17.105Z,-2.50
2023-01-28T22:26:18.823Z,-2.50
2023-01-28T22:33:19.168Z,-2.50
2023-01-28T22:40:19.664Z,-2.50
2023-01-28T22:47:19.999Z,-2.50
2023-01-28T22:54:20.486Z,-2.50
2023-01-28T23:01:21.255Z,-2.60
2023-01-28T23:08:21.314Z,-2.60
2023-01-28T23:15:41.489Z,-2.70
2023-01-28T23:23:00.966Z,-2.70
2023-01-28T23:30:01.373Z,-2.80
2023-01-28T23:37:03.702Z,-2.80
2023-01-28T23:44:04.964Z,-2.90
2023-01-28T23:51:07.671Z,-2.90
2023-01-28T23:58:08.278Z,-2.90
